Time;durP1;ratioP1;P1;durP2;ratioP2;P2;SDS_P1;SDS_P2;PMS_P1;PMS_P2;Temp;Humidity;BMP_temperature;BMP_pressure;BME280_temperature;BME280_humidity;BME280_pressure;Samples;Min_cycle;Max_cycle;Signal;HPM_P1;HPM_P2
2022/04/23 00:02:00;;;;;;;34.85;19.42;;;8.10;99.90;;;;;;4951478;28;20370;-86
2022/04/23 00:04:30;;;;;;;28.47;18.80;;;;;;;;;;4950294;28;20557;-85
2022/04/23 00:06:56;;;;;;;32.13;19.63;;;;;;;;;;4952167;28;20432;-86
2022/04/23 00:09:22;;;;;;;30.97;19.50;;;;;;;;;;4954481;28;20347;-85
2022/04/23 00:11:48;;;;;;;32.97;21.43;;;;;;;;;;4972625;28;20444;-88
2022/04/23 00:14:14;;;;;;;30.90;19.27;;;7.80;99.90;;;;;;4970165;28;20467;-87
2022/04/23 00:16:40;;;;;;;34.00;21.33;;;;;;;;;;4972964;28;20189;-87
2022/04/23 00:19:06;;;;;;;31.33;19.57;;;;;;;;;;4966793;28;20180;-86
2022/04/23 00:21:35;;;;;;;29.52;20.60;;;7.80;99.90;;;;;;4964435;28;20448;-87
2022/04/23 00:24:01;;;;;;;36.55;22.48;;;;;;;;;;4956403;28;20322;-87
2022/04/23 00:26:27;;;;;;;30.23;20.42;;;;;;;;;;4961672;28;20185;-87
2022/04/23 00:28:53;;;;;;;31.73;21.45;;;;;;;;;;4963582;28;20794;-87
2022/04/23 00:31:19;;;;;;;33.80;21.23;;;;;;;;;;4961682;28;20200;-86
2022/04/23 00:33:45;;;;;;;29.30;20.50;;;;;;;;;;4960880;28;20196;-86
2022/04/23 00:36:11;;;;;;;28.53;19.53;;;7.80;99.90;;;;;;4960323;28;20443;-86
2022/04/23 00:38:42;;;;;;;33.13;19.83;;;7.60;99.90;;;;;;4957518;28;20538;-86
2022/04/23 00:41:08;;;;;;;29.38;20.70;;;;;;;;;;4957213;28;20315;-88
2022/04/23 00:43:34;;;;;;;33.63;22.88;;;;;;;;;;4959258;28;20192;-87
2022/04/23 00:46:01;;;;;;;32.05;21.58;;;7.60;99.90;;;;;;4959177;28;20200;-88
2022/04/23 00:48:28;;;;;;;34.95;22.88;;;9.10;99.90;;;;;;4957998;28;20208;-86
2022/04/23 00:50:56;;;;;;;30.25;21.33;;;7.60;99.90;;;;;;4961670;28;20184;-86
2022/04/23 00:53:23;;;;;;;29.75;20.50;;;7.60;99.90;;;;;;4958202;28;20192;-86
2022/04/23 00:55:52;;;;;;;33.75;20.30;;;7.50;99.90;;;;;;4953632;28;20177;-87
2022/04/23 00:58:18;;;;;;;27.70;19.70;;;;;;;;;;4959948;28;20219;-85
2022/04/23 01:00:44;;;;;;;30.17;20.60;;;;;;;;;;4960379;28;20184;-86
2022/04/23 01:03:12;;;;;;;34.78;21.75;;;7.30;99.90;;;;;;4958440;28;20451;-85
2022/04/23 01:05:40;;;;;;;32.65;19.55;;;7.20;99.90;;;;;;4955125;28;21132;-86
2022/04/23 01:08:06;;;;;;;38.10;20.75;;;7.30;99.90;;;;;;4957622;28;20727;-83
2022/04/23 01:10:32;;;;;;;33.33;19.87;;;7.20;99.90;;;;;;4959459;28;20196;-86
2022/04/23 01:12:59;;;;;;;26.73;19.37;;;;;;;;;;4959308;28;20455;-86
2022/04/23 01:15:24;;;;;;;34.03;20.10;;;7.00;99.90;;;;;;4958801;28;20189;-86
2022/04/23 01:17:50;;;;;;;30.23;19.33;;;7.00;99.90;;;;;;4958198;28;20215;-85
2022/04/23 01:20:16;;;;;;;37.77;20.70;;;6.90;99.90;;;;;;4975857;28;20192;-87
2022/04/23 01:22:44;;;;;;;36.90;22.95;;;6.90;99.90;;;;;;4960879;28;20667;-84
2022/04/23 01:25:13;;;;;;;32.28;21.40;;;6.90;99.90;;;;;;4958048;28;20188;-84
2022/04/23 01:27:40;;;;;;;34.88;22.48;;;6.80;99.90;;;;;;4957180;28;20212;-87
2022/04/23 01:30:08;;;;;;;31.70;21.63;;;9.00;99.90;;;;;;4956696;28;20204;-86
2022/04/23 01:32:34;;;;;;;33.08;22.42;;;6.80;99.90;;;;;;4963919;28;20187;-85
2022/04/23 01:35:00;;;;;;;33.25;22.42;;;;;;;;;;4961961;28;20177;-85
2022/04/23 01:37:26;;;;;;;29.85;19.15;;;;;;;;;;4964853;28;20196;-86
2022/04/23 01:39:52;;;;;;;34.50;20.50;;;6.80;99.90;;;;;;4974545;28;20200;-85
2022/04/23 01:42:19;;;;;;;34.17;20.70;;;;;;;;;;4968105;28;20191;-87
2022/04/23 01:44:46;;;;;;;32.95;21.48;;;6.60;99.90;;;;;;4976370;28;20215;-88
2022/04/23 01:47:11;;;;;;;34.53;22.00;;;6.60;99.90;;;;;;4951381;28;20513;-87
2022/04/23 01:49:38;;;;;;;43.53;22.50;;;;;;;;;;4954913;28;20209;-86
2022/04/23 01:52:03;;;;;;;41.53;25.30;;;6.80;99.90;;;;;;4959628;28;20195;-87
2022/04/23 01:54:29;;;;;;;31.53;20.87;;;6.50;99.90;;;;;;4956782;28;20180;-87
2022/04/23 01:56:59;;;;;;;34.57;21.77;;;7.30;99.90;;;;;;4960045;28;20187;-87
2022/04/23 01:59:25;;;;;;;39.08;21.95;;;;;;;;;;4973423;28;20208;-87
2022/04/23 02:01:52;;;;;;;34.80;22.57;;;;;;;;;;4958213;28;20199;-87
2022/04/23 02:04:17;;;;;;;36.53;20.95;;;7.40;99.90;;;;;;4959517;28;20462;-87
2022/04/23 02:06:44;;;;;;;32.10;20.70;;;7.40;99.90;;;;;;4960100;28;20192;-86
2022/04/23 02:09:10;;;;;;;30.10;19.10;;;;;;;;;;4963229;28;20212;-87
2022/04/23 02:11:36;;;;;;;32.05;21.20;;;;;;;;;;4961517;28;20276;-85
2022/04/23 02:14:04;;;;;;;31.77;21.47;;;7.30;99.90;;;;;;4959427;28;20271;-87
2022/04/23 02:16:31;;;;;;;33.33;20.70;;;7.20;99.90;;;;;;4958642;28;20523;-87
2022/04/23 02:19:03;;;;;;;28.05;18.00;;;7.00;99.90;;;;;;4957654;28;20316;-88
2022/04/23 02:21:32;;;;;;;30.42;19.90;;;6.80;99.90;;;;;;4957865;28;21070;-88
2022/04/23 02:23:57;;;;;;;32.85;20.55;;;6.70;99.90;;;;;;4959939;28;20196;-87
2022/04/23 02:26:23;;;;;;;30.53;20.10;;;;;;;;;;4957718;28;20278;-88
2022/04/23 02:28:50;;;;;;;27.10;17.33;;;6.70;99.90;;;;;;4959013;28;20220;-86
2022/04/23 02:31:16;;;;;;;30.83;20.13;;;6.70;99.90;;;;;;4960081;28;20185;-84
2022/04/23 02:33:44;;;;;;;28.23;18.50;;;9.20;99.90;;;;;;4957821;28;20180;-87
2022/04/23 02:36:11;;;;;;;31.48;19.52;;;6.80;99.90;;;;;;4954671;28;20200;-86
2022/04/23 02:38:40;;;;;;;27.45;19.15;;;8.00;99.90;;;;;;4959128;28;20603;-86
2022/04/23 02:41:06;;;;;;;37.25;21.98;;;;;;;;;;4959155;28;20184;-83
2022/04/23 02:43:33;;;;;;;32.40;18.85;;;6.80;99.90;;;;;;4961677;28;20191;-84
2022/04/23 02:46:00;;;;;;;30.00;19.02;;;6.80;99.90;;;;;;4957117;28;21006;-87
2022/04/23 02:48:25;;;;;;;31.50;19.98;;;6.70;99.90;;;;;;4958566;28;20617;-86
2022/04/23 02:50:51;;;;;;;27.70;18.90;;;;;;;;;;4958468;28;20203;-85
2022/04/23 02:53:17;;;;;;;30.67;21.63;;;;;;;;;;4958127;28;20180;-86
2022/04/23 02:55:43;;;;;;;29.45;19.75;;;6.70;99.90;;;;;;4960671;28;20507;-86
2022/04/23 02:58:11;;;;;;;24.97;18.07;;;6.70;99.90;;;;;;4962476;28;20275;-87
2022/04/23 03:00:39;;;;;;;28.92;19.42;;;7.70;99.90;;;;;;4969797;28;20216;-85
2022/04/23 03:03:05;;;;;;;25.85;18.30;;;6.60;99.90;;;;;;4973358;28;20195;-87
2022/04/23 03:05:31;;;;;;;28.58;18.25;;;6.60;99.90;;;;;;4964751;28;20192;-86
2022/04/23 03:08:02;;;;;;;29.85;18.83;;;;;;;;;;4977292;28;20589;-85
2022/04/23 03:10:32;;;;;;;26.92;18.77;;;6.20;99.90;;;;;;4963028;28;20208;-87
2022/04/23 03:12:57;;;;;;;34.08;19.95;;;7.00;99.90;;;;;;4955212;28;20189;-85
2022/04/23 03:15:25;;;;;;;33.53;20.33;;;6.10;99.90;;;;;;4959271;28;20235;-87
2022/04/23 03:18:05;;;;;;;30.23;18.80;;;6.00;99.90;;;;;;4974526;28;20218;-85
2022/04/23 03:20:31;;;;;;;32.10;19.50;;;6.10;99.90;;;;;;4964746;28;20180;-87
2022/04/23 03:22:56;;;;;;;33.95;20.15;;;6.10;99.90;;;;;;4960632;28;20180;-86
2022/04/23 03:25:22;;;;;;;32.73;19.83;;;6.00;99.90;;;;;;4962029;28;20283;-86
2022/04/23 03:27:48;;;;;;;31.87;19.90;;;5.90;99.90;;;;;;4962224;28;20307;-88
2022/04/23 03:30:13;;;;;;;32.80;18.70;;;5.80;99.90;;;;;;4964206;28;20333;-87
2022/04/23 03:32:41;;;;;;;40.90;20.43;;;;;;;;;;4961645;28;20192;-88
2022/04/23 03:35:07;;;;;;;30.92;20.27;;;;;;;;;;4976244;28;20181;-85
2022/04/23 03:37:33;;;;;;;31.27;21.10;;;5.60;99.90;;;;;;4958776;28;20208;-87
2022/04/23 03:39:59;;;;;;;29.40;19.17;;;5.60;99.90;;;;;;4961944;28;20175;-84
2022/04/23 03:42:24;;;;;;;31.27;21.40;;;7.20;99.90;;;;;;4960824;28;20184;-87
2022/04/23 03:44:50;;;;;;;34.63;19.53;;;5.50;99.90;;;;;;4962442;28;20196;-87
2022/04/23 03:47:16;;;;;;;31.50;20.83;;;;;;;;;;4960998;28;20211;-86
2022/04/23 03:49:42;;;;;;;41.88;21.08;;;5.50;99.90;;;;;;4963080;28;20196;-85
2022/04/23 03:52:10;;;;;;;30.75;20.63;;;3.60;99.90;;;;;;4968756;28;20188;-85
2022/04/23 03:54:36;;;;;;;37.22;21.90;;;;;;;;;;4974794;28;20184;-86
2022/04/23 03:57:02;;;;;;;34.50;23.67;;;;;;;;;;4977451;28;20267;-86
2022/04/23 03:59:37;;;;;;;34.10;21.13;;;5.70;99.90;;;;;;4971586;28;20269;-86
2022/04/23 04:02:04;;;;;;;34.65;21.25;;;5.70;99.90;;;;;;4961628;28;20289;-86
2022/04/23 04:04:32;;;;;;;35.47;21.92;;;5.80;99.90;;;;;;4959345;28;20181;-86
2022/04/23 04:06:59;;;;;;;35.95;21.60;;;5.90;99.90;;;;;;4967659;28;20866;-89
2022/04/23 04:09:24;;;;;;;33.60;20.85;;;6.70;99.90;;;;;;4964312;28;20208;-87
2022/04/23 04:12:02;;;;;;;33.43;21.33;;;;;;;;;;4964915;28;20252;-86
2022/04/23 04:14:30;;;;;;;33.45;20.15;;;6.00;99.90;;;;;;4981684;28;20188;-88
2022/04/23 04:16:58;;;;;;;28.80;19.40;;;6.10;99.90;;;;;;4965170;28;20188;-88
2022/04/23 04:19:25;;;;;;;34.22;21.55;;;;;;;;;;4965149;28;20672;-86
2022/04/23 04:21:51;;;;;;;39.67;23.75;;;;;;;;;;4964303;28;20192;-88
2022/04/23 04:24:16;;;;;;;33.28;21.98;;;6.10;99.90;;;;;;4967637;28;20239;-87
2022/04/23 04:26:46;;;;;;;31.87;20.23;;;6.20;99.90;;;;;;4969830;28;20196;-89
2022/04/23 04:29:12;;;;;;;31.85;21.25;;;;;;;;;;4964456;28;20228;-86
2022/04/23 04:31:47;;;;;;;38.72;23.05;;;6.20;99.90;;;;;;4962519;28;20189;-88
2022/04/23 04:34:13;;;;;;;28.27;18.50;;;6.20;99.90;;;;;;4961841;28;20176;-86
2022/04/23 04:36:39;;;;;;;31.13;19.98;;;;;;;;;;4958175;28;20298;-87
2022/04/23 04:39:05;;;;;;;30.23;19.45;;;;;;;;;;4957441;28;20742;-86
2022/04/23 04:41:32;;;;;;;26.05;19.17;;;;;;;;;;4960832;28;20184;-87
2022/04/23 04:43:58;;;;;;;28.17;18.25;;;;;;;;;;4957918;28;20199;-87
2022/04/23 04:46:23;;;;;;;27.25;17.38;;;8.00;99.90;;;;;;4955667;28;20256;-87
2022/04/23 04:48:51;;;;;;;30.50;18.33;;;;;;;;;;4956117;28;20356;-86
2022/04/23 04:51:17;;;;;;;22.15;15.63;;;;;;;;;;4971226;28;20180;-87
2022/04/23 04:53:43;;;;;;;21.67;15.07;;;8.60;99.90;;;;;;4954142;28;20199;-89
2022/04/23 04:56:09;;;;;;;20.57;14.70;;;8.50;99.90;;;;;;4959797;28;20440;-90
2022/04/23 04:58:35;;;;;;;22.83;16.00;;;10.60;99.90;;;;;;4965469;28;20333;-86
2022/04/23 05:01:01;;;;;;;25.80;15.33;;;;;;;;;;4962248;28;20212;-89
2022/04/23 05:03:26;;;;;;;20.87;14.60;;;8.90;99.90;;;;;;4954976;28;20180;-87
2022/04/23 05:05:52;;;;;;;23.90;16.00;;;9.50;99.90;;;;;;4952305;28;21252;-85
2022/04/23 05:08:18;;;;;;;17.27;13.63;;;;;;;;;;4970245;28;20260;-87
2022/04/23 05:10:43;;;;;;;17.35;12.77;;;11.80;99.90;;;;;;4955936;28;20184;-86
2022/04/23 05:13:09;;;;;;;17.23;12.17;;;12.70;99.90;;;;;;4957528;28;20187;-86
2022/04/23 05:15:35;;;;;;;14.70;11.33;;;13.10;99.90;;;;;;4958114;28;20182;-87
2022/04/23 05:18:01;;;;;;;14.07;11.43;;;;;;;;;;4954655;28;20798;-87
2022/04/23 05:20:27;;;;;;;14.07;11.00;;;14.50;99.90;;;;;;4975105;28;20276;-88
2022/04/23 05:22:53;;;;;;;16.73;12.00;;;;;;;;;;4959854;28;20660;-88
2022/04/23 05:25:21;;;;;;;12.02;9.70;;;16.30;99.90;;;;;;4960698;28;20184;-85
2022/04/23 05:27:47;;;;;;;13.98;11.15;;;;;;;;;;4963151;28;20212;-88
2022/04/23 05:30:13;;;;;;;11.00;9.27;;;;;;;;;;4962893;28;20197;-88
2022/04/23 05:32:39;;;;;;;12.97;10.47;;;;;;;;;;4958567;28;20451;-88
2022/04/23 05:35:05;;;;;;;10.27;7.93;;;17.80;99.90;;;;;;4957577;28;20436;-88
2022/04/23 05:37:31;;;;;;;11.00;9.10;;;;;;;;;;4956578;28;20984;-87
2022/04/23 05:39:57;;;;;;;10.77;8.20;;;;;;;;;;4953240;28;20503;-87
2022/04/23 05:42:22;;;;;;;11.80;8.60;;;16.50;99.90;;;;;;4955132;28;20939;-86
2022/04/23 05:44:48;;;;;;;11.30;8.63;;;;;;;;;;4953912;28;20698;-86
2022/04/23 05:47:14;;;;;;;9.50;7.60;;;14.90;99.90;;;;;;4954141;28;20192;-88
2022/04/23 05:49:39;;;;;;;10.80;8.33;;;15.00;99.90;;;;;;4953620;28;20432;-88
2022/04/23 05:52:05;;;;;;;10.60;8.90;;;;;;;;;;4952781;28;20207;-86
2022/04/23 05:54:31;;;;;;;15.18;9.20;;;;;;;;;;4958061;28;20192;-86
2022/04/23 05:56:57;;;;;;;11.80;9.57;;;;;;;;;;4957118;28;20738;-86
2022/04/23 05:59:26;;;;;;;12.03;9.80;;;;;;;;;;4954236;28;20438;-86
2022/04/23 06:01:52;;;;;;;13.77;9.80;;;13.50;99.90;;;;;;4954408;28;20984;-86
2022/04/23 06:04:19;;;;;;;10.73;8.23;;;;;;;;;;4949757;28;20188;-85
2022/04/23 06:06:45;;;;;;;9.68;7.93;;;;;;;;;;4951894;28;20188;-85
2022/04/23 06:09:12;;;;;;;12.97;10.17;;;;;;;;;;4948284;28;20219;-87
2022/04/23 06:11:39;;;;;;;11.88;8.70;;;12.00;99.90;;;;;;4951762;28;20446;-88
2022/04/23 06:14:04;;;;;;;14.50;10.00;;;11.90;99.90;;;;;;4944566;28;20191;-85
2022/04/23 06:16:30;;;;;;;14.20;9.73;;;11.70;99.90;;;;;;4943581;28;20181;-87
2022/04/23 06:18:56;;;;;;;12.60;9.80;;;;;;;;;;4950278;28;20211;-87
2022/04/23 06:21:22;;;;;;;11.87;10.57;;;;;;;;;;4968406;28;20211;-85
2022/04/23 06:23:47;;;;;;;14.50;10.13;;;12.10;99.90;;;;;;4951163;28;20441;-87
2022/04/23 06:26:15;;;;;;;15.13;10.63;;;12.50;99.90;;;;;;4942794;28;20440;-86
2022/04/23 06:28:41;;;;;;;12.63;9.63;;;;;;;;;;4944909;28;20234;-86
2022/04/23 06:31:07;;;;;;;14.30;10.43;;;;;;;;;;4959431;28;20181;-87
2022/04/23 06:33:33;;;;;;;13.20;9.85;;;;;;;;;;4941446;28;20431;-86
2022/04/23 06:35:59;;;;;;;15.40;10.50;;;;;;;;;;4951297;28;20243;-84
2022/04/23 06:38:25;;;;;;;13.63;10.20;;;12.50;99.90;;;;;;4933321;28;20467;-85
2022/04/23 06:40:51;;;;;;;12.60;9.60;;;;;;;;;;4936531;28;20192;-87
2022/04/23 06:43:17;;;;;;;14.53;10.47;;;;;;;;;;4944760;28;20196;-86
2022/04/23 06:45:43;;;;;;;12.37;9.50;;;12.90;99.90;;;;;;4946749;28;23581;-86
2022/04/23 06:48:08;;;;;;;12.50;9.40;;;13.00;99.90;;;;;;4947183;28;20510;-87
2022/04/23 06:50:35;;;;;;;14.20;10.17;;;14.20;99.90;;;;;;4952007;28;20196;-86
2022/04/23 06:53:01;;;;;;;15.18;9.60;;;13.00;99.90;;;;;;4952378;28;20223;-86
2022/04/23 06:55:28;;;;;;;12.48;9.50;;;13.20;99.90;;;;;;4954781;28;20187;-86
2022/04/23 06:57:54;;;;;;;11.63;9.00;;;;;;;;;;4948519;28;20210;-84
2022/04/23 07:00:22;;;;;;;14.13;10.30;;;;;;;;;;4946842;28;20188;-88
2022/04/23 07:02:50;;;;;;;14.23;10.35;;;13.00;99.90;;;;;;4943284;28;20267;-85
2022/04/23 07:05:16;;;;;;;12.27;9.02;;;;;;;;;;4953800;28;20216;-87
2022/04/23 07:07:42;;;;;;;14.20;10.13;;;12.60;99.90;;;;;;4952740;28;20215;-86
2022/04/23 07:10:08;;;;;;;14.83;8.33;;;12.50;99.90;;;;;;4952416;28;20432;-87
2022/04/23 07:12:36;;;;;;;11.63;8.63;;;12.60;99.90;;;;;;4952143;28;20176;-85
2022/04/23 07:15:03;;;;;;;12.70;9.20;;;12.60;99.90;;;;;;4953795;28;21892;-87
2022/04/23 07:17:29;;;;;;;11.10;8.20;;;;;;;;;;4952562;28;20208;-86
2022/04/23 07:19:55;;;;;;;11.00;8.00;;;;;;;;;;4957210;28;20188;-86
2022/04/23 07:22:21;;;;;;;10.07;7.83;;;12.60;99.90;;;;;;4954186;28;20448;-86
2022/04/23 07:24:49;;;;;;;9.98;8.02;;;12.60;99.90;;;;;;4966652;28;20444;-86
2022/04/23 07:27:14;;;;;;;15.07;8.95;;;12.90;99.90;;;;;;4948664;28;21221;-85
2022/04/23 07:29:40;;;;;;;9.43;7.80;;;12.90;99.90;;;;;;4963814;28;20192;-85
2022/04/23 07:32:06;;;;;;;9.70;7.30;;;12.90;99.90;;;;;;4953890;28;20184;-84
2022/04/23 07:37:34;;;;;;;10.00;7.53;;;13.90;99.90;;;;;;4953527;28;20211;-86
2022/04/23 07:40:06;;;;;;;10.45;6.68;;;14.40;99.90;;;;;;4953694;28;20177;-86
2022/04/23 07:42:32;;;;;;;8.75;5.90;;;13.80;99.90;;;;;;4967763;28;20185;-85
2022/04/23 07:44:58;;;;;;;8.73;6.90;;;13.70;99.90;;;;;;4971129;28;20291;-83
2022/04/23 07:47:24;;;;;;;7.47;6.78;;;13.70;99.90;;;;;;4953347;28;20271;-85
2022/04/23 07:49:50;;;;;;;9.27;6.90;;;;;;;;;;4945600;28;20255;-86
2022/04/23 07:52:16;;;;;;;8.57;5.78;;;13.50;99.90;;;;;;4947844;28;20457;-85
2022/04/23 07:54:44;;;;;;;8.95;6.90;;;13.00;99.90;;;;;;4947890;28;20831;-87
2022/04/23 07:57:11;;;;;;;6.95;6.22;;;12.90;99.90;;;;;;4951582;28;20699;-86
2022/04/23 07:59:41;;;;;;;8.90;6.63;;;12.80;99.90;;;;;;4953423;28;20193;-86
2022/04/23 08:02:08;;;;;;;7.13;5.72;;;12.90;99.90;;;;;;4950185;28;20744;-86
2022/04/23 08:04:33;;;;;;;8.60;5.65;;;13.10;99.90;;;;;;4947626;28;20204;-85
2022/04/23 08:06:59;;;;;;;7.47;6.00;;;;;;;;;;4946193;28;20212;-85
2022/04/23 08:09:25;;;;;;;8.00;5.57;;;;;;;;;;4949370;28;20216;-85
2022/04/23 08:11:51;;;;;;;7.10;4.77;;;14.10;99.90;;;;;;4950541;28;20443;-86
2022/04/23 08:14:17;;;;;;;5.90;5.30;;;;;;;;;;4953054;28;20499;-86
2022/04/23 08:16:42;;;;;;;5.57;4.60;;;14.10;99.90;;;;;;4947581;28;20701;-86
2022/04/23 08:19:11;;;;;;;8.10;5.57;;;;;;;;;;4952922;28;20451;-87
2022/04/23 08:21:37;;;;;;;6.05;5.05;;;14.10;99.90;;;;;;4957647;28;20212;-86
2022/04/23 08:24:03;;;;;;;5.67;4.70;;;14.10;99.90;;;;;;4954292;28;20196;-84
2022/04/23 08:26:28;;;;;;;6.17;5.57;;;;;;;;;;4955482;28;20271;-84
2022/04/23 08:31:38;;;;;;;6.82;5.20;;;15.10;99.90;;;;;;4949164;28;20494;-87
2022/04/23 08:34:03;;;;;;;5.97;5.23;;;14.70;99.90;;;;;;4951767;28;20192;-86
2022/04/23 08:36:35;;;;;;;7.37;5.73;;;14.50;99.90;;;;;;4956475;28;20188;-85
2022/04/23 08:39:04;;;;;;;6.82;5.13;;;14.20;99.90;;;;;;4953922;28;20761;-86
2022/04/23 08:41:30;;;;;;;5.10;4.20;;;;;;;;;;4954377;28;20180;-87
2022/04/23 08:43:57;;;;;;;6.83;4.67;;;14.80;99.90;;;;;;4954404;28;20442;-84
2022/04/23 08:46:26;;;;;;;5.35;4.65;;;14.80;99.90;;;;;;4952377;28;20446;-86
2022/04/23 08:49:02;;;;;;;4.85;4.25;;;14.70;99.90;;;;;;4954111;28;20307;-86
2022/04/23 08:51:31;;;;;;;5.40;4.82;;;14.40;99.90;;;;;;4950158;28;20706;-85
2022/04/23 08:53:59;;;;;;;5.93;4.30;;;14.30;99.90;;;;;;4952888;28;20247;-85
2022/04/23 08:56:25;;;;;;;6.38;5.30;;;14.20;99.90;;;;;;4955711;28;20183;-86
2022/04/23 08:58:51;;;;;;;4.67;4.20;;;;;;;;;;4954734;28;20208;-87
2022/04/23 09:01:18;;;;;;;4.95;4.45;;;;;;;;;;4973931;28;20184;-86
2022/04/23 09:03:45;;;;;;;4.85;4.20;;;13.90;99.90;;;;;;4957297;28;20191;-87
2022/04/23 09:06:11;;;;;;;4.55;4.15;;;;;;;;;;4950303;28;20197;-86
2022/04/23 09:08:37;;;;;;;6.80;4.17;;;;;;;;;;4970677;28;20207;-85
2022/04/23 09:11:03;;;;;;;4.00;3.60;;;14.20;99.90;;;;;;4965020;28;20432;-86
2022/04/23 09:13:31;;;;;;;5.77;3.97;;;14.10;99.90;;;;;;4960705;28;20428;-87
2022/04/23 09:24:49;;;;;;;6.68;4.15;;;14.30;99.90;;;;;;4958277;28;20239;-87
2022/04/23 09:27:15;;;;;;;4.15;3.55;;;14.30;99.90;;;;;;4958358;28;20180;-87
2022/04/23 09:29:59;;;;;;;6.03;5.32;;;14.20;99.90;;;;;;4968453;28;20279;-86
2022/04/23 09:32:27;;;;;;;7.30;5.88;;;14.10;99.90;;;;;;4956902;28;20273;-88
2022/04/23 09:35:10;;;;;;;7.25;5.80;;;14.10;99.90;;;;;;4954270;28;20188;-87
2022/04/23 09:40:27;;;;;;;6.05;5.00;;;14.20;99.90;;;;;;4952821;28;20247;-87
2022/04/23 09:43:06;;;;;;;5.97;4.97;;;14.30;99.90;;;;;;4951095;28;20189;-88
2022/04/23 09:45:34;;;;;;;8.13;5.77;;;14.60;99.90;;;;;;4959353;28;20188;-88
2022/04/23 09:48:06;;;;;;;7.77;6.50;;;14.70;99.90;;;;;;4951159;28;20843;-90
2022/04/23 09:50:38;;;;;;;7.03;6.10;;;14.50;99.90;;;;;;4954462;28;20511;-86
2022/04/23 09:53:18;;;;;;;6.93;5.90;;;14.50;99.90;;;;;;4949588;28;20237;-86
2022/04/23 09:55:45;;;;;;;14.25;5.82;;;14.60;99.90;;;;;;4952153;28;20427;-88
2022/04/23 09:58:13;;;;;;;7.30;5.43;;;14.80;99.90;;;;;;4953308;28;20292;-87
2022/04/23 10:00:43;;;;;;;5.93;4.67;;;14.20;99.90;;;;;;4956815;28;20424;-86
2022/04/23 10:03:11;;;;;;;7.38;5.85;;;14.20;99.90;;;;;;4956946;28;20920;-86
2022/04/23 10:05:39;;;;;;;7.50;5.80;;;14.80;99.90;;;;;;4971652;28;20203;-90
2022/04/23 10:08:14;;;;;;;9.23;5.63;;;17.70;99.90;;;;;;4946381;28;20467;-86
2022/04/23 10:10:59;;;;;;;5.88;4.40;;;14.70;99.90;;;;;;4969343;28;20183;-88
2022/04/23 10:13:29;;;;;;;5.63;5.13;;;14.60;99.90;;;;;;4947940;28;20627;-87
2022/04/23 10:15:57;;;;;;;6.47;5.15;;;14.50;99.90;;;;;;4951981;28;20225;-87
2022/04/23 10:18:23;;;;;;;5.00;4.50;;;;;;;;;;4957279;28;20244;-87
2022/04/23 10:20:55;;;;;;;11.23;5.57;;;14.40;99.90;;;;;;4952643;28;20593;-87
2022/04/23 10:23:40;;;;;;;6.18;5.13;;;14.40;99.90;;;;;;4954721;28;20507;-86
2022/04/23 10:26:14;;;;;;;4.97;4.47;;;14.30;99.90;;;;;;4955211;28;20196;-85
2022/04/23 10:28:44;;;;;;;4.97;4.45;;;14.40;99.90;;;;;;4961131;28;20487;-86
2022/04/23 10:31:15;;;;;;;7.07;5.15;;;15.70;99.90;;;;;;4964465;28;20165;-88
2022/04/23 10:33:51;;;;;;;6.80;4.87;;;14.50;99.90;;;;;;4966326;28;20196;-87
2022/04/23 10:36:22;;;;;;;6.75;4.40;;;14.50;99.90;;;;;;4957684;28;20455;-88
2022/04/23 10:38:52;;;;;;;6.20;4.55;;;14.00;99.90;;;;;;4959170;28;20208;-87
2022/04/23 10:41:21;;;;;;;6.70;4.57;;;14.40;99.90;;;;;;4956598;28;20180;-89
2022/04/23 10:43:50;;;;;;;7.20;5.23;;;16.80;99.90;;;;;;4956374;28;20180;-86
2022/04/23 10:46:47;;;;;;;5.33;4.80;;;14.40;99.90;;;;;;4958224;28;20447;-87
2022/04/23 10:49:23;;;;;;;5.07;4.40;;;14.40;99.90;;;;;;4957301;28;20507;-88
2022/04/23 10:52:31;;;;;;;7.57;5.22;;;14.50;99.90;;;;;;4973280;28;20176;-87
2022/04/23 10:54:57;;;;;;;5.97;5.00;;;;;;;;;;4966600;28;20177;-85
2022/04/23 10:57:23;;;;;;;6.30;5.43;;;14.70;99.90;;;;;;4965923;28;20320;-90
2022/04/23 10:59:50;;;;;;;5.93;4.68;;;16.70;99.90;;;;;;4955520;28;20496;-85
2022/04/23 11:02:21;;;;;;;7.28;5.72;;;15.00;99.90;;;;;;4963765;28;20188;-86
2022/04/23 11:13:31;;;;;;;7.07;6.00;;;15.50;99.90;;;;;;4953468;28;20464;-87
2022/04/23 11:16:16;;;;;;;7.83;6.93;;;15.10;99.90;;;;;;4952641;28;20467;-88
2022/04/23 11:18:43;;;;;;;9.90;8.13;;;15.20;99.90;;;;;;4967164;28;20467;-87
2022/04/23 11:21:24;;;;;;;21.00;14.30;;;15.30;99.90;;;;;;4955782;28;20454;-87
2022/04/23 11:23:51;;;;;;;13.57;10.10;;;15.50;99.90;;;;;;4965019;28;20454;-88
2022/04/23 11:26:38;;;;;;;13.27;10.60;;;17.80;99.90;;;;;;4959067;28;20483;-89
2022/04/23 11:29:03;;;;;;;14.87;9.90;;;15.90;99.90;;;;;;4955532;28;20463;-89
2022/04/23 11:31:30;;;;;;;7.30;6.53;;;;;;;;;;4956538;28;20434;-87
2022/04/23 11:33:57;;;;;;;12.83;8.30;;;15.10;99.90;;;;;;4956227;28;20187;-86
2022/04/23 11:36:34;;;;;;;8.33;6.90;;;15.00;99.90;;;;;;4976981;28;20450;-87
2022/04/23 11:39:07;;;;;;;9.30;7.00;;;15.10;99.90;;;;;;4974621;28;20522;-87
2022/04/23 11:41:43;;;;;;;7.20;5.70;;;15.10;99.90;;;;;;4964583;28;20456;-89
2022/04/23 11:47:04;;;;;;;10.60;7.30;;;15.80;99.90;;;;;;4958169;29;20444;-89
2022/04/23 11:49:31;;;;;;;9.87;7.00;;;16.10;99.90;;;;;;4956253;28;20537;-88
2022/04/23 11:52:08;;;;;;;7.77;6.70;;;16.00;99.90;;;;;;4971058;28;20180;-88
2022/04/23 11:54:37;;;;;;;8.30;6.43;;;16.20;99.90;;;;;;4956598;28;20514;-89
2022/04/23 11:57:12;;;;;;;7.50;6.30;;;16.30;99.90;;;;;;4957439;28;20843;-87
2022/04/23 11:59:43;;;;;;;8.20;6.90;;;16.30;99.90;;;;;;4954988;28;20444;-89
2022/04/23 12:02:19;;;;;;;9.53;6.90;;;16.30;99.90;;;;;;4962369;28;20451;-88
2022/04/23 12:04:45;;;;;;;15.50;6.00;;;15.90;99.90;;;;;;4965856;28;23953;-86
2022/04/23 12:07:11;;;;;;;8.00;6.97;;;15.60;99.90;;;;;;4949583;28;20444;-88
2022/04/23 12:09:50;;;;;;;10.00;7.17;;;16.60;99.90;;;;;;4954557;28;20550;-88
2022/04/23 12:12:19;;;;;;;7.97;6.67;;;15.70;99.90;;;;;;4957140;28;20212;-88
2022/04/23 12:14:48;;;;;;;7.47;5.90;;;16.00;99.90;;;;;;4957466;28;20440;-88
2022/04/23 12:17:26;;;;;;;8.43;6.87;;;16.20;99.90;;;;;;4956423;28;20436;-89
2022/04/23 12:19:53;;;;;;;8.97;6.60;;;16.20;99.90;;;;;;4960805;28;20438;-89
2022/04/23 12:22:36;;;;;;;9.90;6.87;;;16.50;99.90;;;;;;4972647;28;20463;-87
2022/04/23 12:25:18;;;;;;;9.43;6.50;;;16.70;99.90;;;;;;4968259;28;20445;-89
2022/04/23 12:28:00;;;;;;;10.17;7.20;;;16.90;99.90;;;;;;4953605;28;20475;-87
2022/04/23 12:42:20;;;;;;;9.23;6.87;;;16.00;99.90;;;;;;4955514;28;20443;-89
2022/04/23 12:44:49;;;;;;;9.07;6.90;;;15.90;99.90;;;;;;4951026;28;20571;-89
2022/04/23 12:47:17;;;;;;;8.77;6.70;;;15.60;99.90;;;;;;4951199;28;20451;-89
2022/04/23 12:49:56;;;;;;;10.83;8.47;;;15.60;99.90;;;;;;4953055;28;20948;-88
2022/04/23 12:52:24;;;;;;;11.33;9.67;;;15.70;99.90;;;;;;4946824;28;20441;-87
2022/04/23 12:55:15;;;;;;;8.87;7.57;;;16.10;99.90;;;;;;4954015;28;20443;-86
2022/04/23 12:57:51;;;;;;;9.40;7.77;;;16.60;99.90;;;;;;4969625;28;20471;-87
2022/04/23 13:00:19;;;;;;;11.00;7.93;;;17.20;99.90;;;;;;4951598;28;20440;-91
2022/04/23 13:02:58;;;;;;;9.97;6.80;;;17.40;99.90;;;;;;4951486;28;20829;-90
2022/04/23 13:05:26;;;;;;;9.40;7.03;;;20.30;99.90;;;;;;4951892;28;20439;-89
2022/04/23 13:10:37;;;;;;;9.13;6.47;;;;;;;;;;4953492;28;20525;-88
2022/04/23 13:13:05;;;;;;;9.40;6.77;;;17.20;99.90;;;;;;4952515;28;20432;-89
2022/04/23 13:15:31;;;;;;;8.60;6.40;;;17.20;99.90;;;;;;4961462;28;20454;-84
2022/04/23 13:17:57;;;;;;;8.43;6.80;;;;;;;;;;4985039;28;20460;-86
2022/04/23 13:20:23;;;;;;;8.37;7.10;;;;;;;;;;4972097;28;20208;-88
2022/04/23 13:22:50;;;;;;;9.47;7.00;;;17.00;99.90;;;;;;4965391;28;20443;-87
2022/04/23 13:25:17;;;;;;;9.23;6.30;;;17.40;99.90;;;;;;4959810;28;20436;-86
2022/04/23 13:27:44;;;;;;;10.23;6.20;;;17.30;99.90;;;;;;4951511;28;21219;-84
2022/04/23 13:30:11;;;;;;;9.77;7.00;;;18.90;99.90;;;;;;4958070;28;20538;-85
2022/04/23 13:32:39;;;;;;;19.30;9.00;;;16.70;99.90;;;;;;4953110;28;20435;-89
2022/04/23 13:35:10;;;;;;;10.70;7.27;;;16.70;99.90;;;;;;4953807;28;20444;-89
2022/04/23 13:37:36;;;;;;;8.73;7.83;;;16.80;99.90;;;;;;4953914;28;20464;-88
2022/04/23 13:40:02;;;;;;;13.53;8.17;;;16.60;99.90;;;;;;4954207;28;20495;-88
2022/04/23 13:42:29;;;;;;;10.07;8.30;;;16.40;99.90;;;;;;4943417;28;20436;-89
2022/04/23 13:44:58;;;;;;;13.80;7.90;;;16.40;99.90;;;;;;4952211;28;20436;-89
2022/04/23 13:47:23;;;;;;;9.23;7.13;;;16.40;99.90;;;;;;4951197;28;20476;-88
2022/04/23 13:49:55;;;;;;;11.63;7.20;;;16.50;99.90;;;;;;4975197;28;20547;-84
2022/04/23 13:52:20;;;;;;;8.73;7.60;;;16.70;99.90;;;;;;4962783;28;20192;-85
2022/04/23 13:54:53;;;;;;;11.27;7.63;;;16.80;99.90;;;;;;4953626;28;20444;-85
2022/04/23 13:57:19;;;;;;;10.57;7.90;;;16.60;99.90;;;;;;4971058;28;20197;-89